Time;durP1;ratioP1;P1;durP2;ratioP2;P2;SDS_P1;SDS_P2;PMS_P1;PMS_P2;Temp;Humidity;BMP_temperature;BMP_pressure;BME280_temperature;BME280_humidity;BME280_pressure;Samples;Min_cycle;Max_cycle;Signal;HPM_P1;HPM_P2
2022/02/19 00:00:12;;;;;;;4.10;1.27;;;;;;;6.61;74.65;153058.16;5106532;28;20432;-80
2022/02/19 00:02:48;;;;;;;3.70;1.20;;;;;;;6.60;74.48;153056.88;5083017;28;20469;-80
2022/02/19 00:05:24;;;;;;;3.37;1.53;;;;;;;6.57;73.73;153049.13;5084652;28;20433;-80
2022/02/19 00:08:02;;;;;;;4.00;1.50;;;;;;;6.57;78.20;153047.81;5102136;28;20938;-80
2022/02/19 00:10:38;;;;;;;3.47;1.50;;;;;;;6.59;71.63;153054.28;5097230;28;20476;-80
2022/02/19 00:13:13;;;;;;;2.23;1.10;;;;;;;6.58;72.80;153050.41;5087781;28;20822;-80
2022/02/19 00:15:49;;;;;;;4.83;1.33;;;;;;;6.54;74.90;153040.13;5083945;28;20456;-80
2022/02/19 00:18:24;;;;;;;1.73;1.00;;;;;;;6.52;73.90;153036.22;5100603;28;20875;-80
2022/02/19 00:21:00;;;;;;;4.30;1.10;;;;;;;6.51;73.46;153032.38;5105262;28;21303;-80
2022/02/19 00:23:37;;;;;;;3.83;1.43;;;;;;;6.52;70.93;153036.22;5090792;28;20803;-79
2022/02/19 00:26:13;;;;;;;2.10;1.10;;;;;;;6.50;71.10;153031.06;5095593;28;20448;-80
2022/02/19 00:28:48;;;;;;;2.30;0.90;;;;;;;6.40;74.65;153005.28;5109335;28;20435;-80
2022/02/19 00:31:24;;;;;;;4.40;1.37;;;;;;;6.40;70.37;153003.97;5092006;28;20467;-80
2022/02/19 00:34:00;;;;;;;3.93;1.17;;;;;;;6.44;72.71;153015.56;5090962;28;20452;-80
2022/02/19 00:36:36;;;;;;;2.80;1.00;;;;;;;6.44;70.89;153014.28;5091580;28;20452;-80
2022/02/19 00:39:13;;;;;;;4.50;1.57;;;;;;;6.44;70.33;153015.56;5092707;28;20454;-80
2022/02/19 00:41:49;;;;;;;2.80;1.20;;;;;;;6.50;71.39;153029.75;5093235;28;20451;-80
2022/02/19 00:44:26;;;;;;;3.20;1.00;;;;;;;6.47;72.26;153022.00;5108848;28;20466;-80
2022/02/19 00:47:02;;;;;;;2.40;1.30;;;;;;;6.53;70.52;153037.50;5105436;28;20440;-80
2022/02/19 00:49:38;;;;;;;2.57;1.23;;;;;;;6.44;69.96;153014.28;5092306;28;20526;-80
2022/02/19 00:52:14;;;;;;;3.47;1.93;;;;;;;6.43;70.44;153011.72;5092642;28;20472;-80
2022/02/19 00:54:51;;;;;;;2.67;0.80;;;;;;;6.45;71.17;153016.88;5105212;28;20448;-80
2022/02/19 00:57:28;;;;;;;4.63;1.80;;;;;;;6.48;68.93;153024.63;5093786;28;20521;-80
2022/02/19 01:00:04;;;;;;;3.40;1.70;;;;;;;6.45;69.16;153018.16;5107016;28;20456;-80
2022/02/19 01:02:43;;;;;;;2.10;0.90;;;;;;;6.45;69.53;153016.88;5089225;28;20550;-80
2022/02/19 01:05:23;;;;;;;2.97;1.63;;;;;;;6.41;69.53;153006.53;5094442;28;20428;-80
2022/02/19 01:07:59;;;;;;;1.77;0.87;;;;;;;6.41;72.22;153006.53;5086812;28;20444;-80
2022/02/19 01:10:37;;;;;;;2.17;1.10;;;;;;;6.35;69.33;152991.06;5107915;28;20544;-80
2022/02/19 01:13:13;;;;;;;3.33;1.10;;;;;;;6.39;67.91;153001.38;5106469;28;20451;-80
2022/02/19 01:15:49;;;;;;;5.07;1.40;;;;;;;6.42;72.04;153010.41;5092061;28;20459;-80
2022/02/19 01:18:24;;;;;;;4.00;2.10;;;;;;;6.40;69.50;153003.97;5107945;28;20546;-80
2022/02/19 01:21:00;;;;;;;3.50;1.23;;;;;;;6.37;68.78;152996.22;5091272;28;20445;-80
2022/02/19 01:23:36;;;;;;;5.57;1.70;;;;;;;6.40;69.63;153003.97;5107252;28;20452;-80
2022/02/19 01:26:12;;;;;;;5.90;1.23;;;;;;;6.34;69.63;152988.47;5101472;28;20815;-80
2022/02/19 01:28:54;;;;;;;2.40;1.20;;;;;;;6.38;68.50;152998.81;5090150;28;20557;-80
2022/02/19 01:31:34;;;;;;;2.23;0.93;;;;;;;6.39;70.36;153001.38;5085551;28;20947;-80
2022/02/19 01:34:10;;;;;;;1.50;0.90;;;;;;;6.30;71.94;152978.16;5108558;28;20472;-80
2022/02/19 01:36:47;;;;;;;2.27;1.00;;;;;;;6.32;67.33;152983.31;5090106;28;20451;-80
2022/02/19 01:39:24;;;;;;;2.23;1.00;;;;;;;6.32;66.99;152984.63;5091309;28;20459;-80
2022/02/19 01:42:05;;;;;;;6.77;1.47;;;;;;;6.33;69.61;152985.91;5090515;28;20447;-80
2022/02/19 01:44:44;;;;;;;2.10;0.90;;;;;;;6.26;70.49;152967.81;5089642;28;20547;-80
2022/02/19 01:47:22;;;;;;;2.40;1.30;;;;;;;6.29;65.35;152975.56;5087885;28;20947;-80
2022/02/19 01:50:00;;;;;;;3.60;1.07;;;;;;;6.24;70.91;152962.66;5092351;28;20444;-80
2022/02/19 01:52:37;;;;;;;4.00;0.70;;;;;;;6.27;67.87;152970.41;5088322;28;20506;-80
2022/02/19 01:55:13;;;;;;;2.20;0.80;;;;;;;6.22;69.44;152957.53;5086858;28;20436;-80
2022/02/19 01:58:08;;;;;;;3.60;1.30;;;;;;;6.17;64.90;152944.63;5092369;28;20436;-80
2022/02/19 02:01:06;;;;;;;4.27;1.10;;;;;;;6.16;69.58;152943.31;5084113;28;20448;-80
2022/02/19 02:04:02;;;;;;;4.57;1.10;;;;;;;6.16;66.57;152942.03;5105232;28;20507;-80
2022/02/19 02:06:42;;;;;;;3.23;1.37;;;;;;;6.12;65.76;152934.28;5086360;28;20885;-80
2022/02/19 02:09:20;;;;;;;6.23;1.63;;;;;;;6.09;69.22;152926.53;5092113;28;20845;-80
2022/02/19 02:11:56;;;;;;;2.67;1.07;;;;;;;6.09;69.26;152926.53;5092457;28;20463;-80
2022/02/19 02:14:37;;;;;;;3.20;1.30;;;;;;;6.05;68.79;152916.25;5093769;28;20440;-80
2022/02/19 02:17:16;;;;;;;2.70;1.00;;;;;;;6.07;67.35;152920.09;5091535;28;20450;-80
2022/02/19 02:19:51;;;;;;;3.03;1.10;;;;;;;6.04;67.18;152913.63;5084348;28;20489;-80
2022/02/19 02:22:29;;;;;;;3.17;1.20;;;;;;;6.02;66.98;152907.19;5084621;28;20455;-80
2022/02/19 02:25:08;;;;;;;3.70;1.07;;;;;;;6.05;66.54;152916.25;5106893;28;20860;-80
2022/02/19 02:27:48;;;;;;;4.60;1.73;;;;;;;6.00;65.62;152903.34;5108040;28;20452;-80
2022/02/19 02:30:25;;;;;;;3.87;1.57;;;;;;;6.01;65.23;152904.66;5090729;28;20476;-80
2022/02/19 02:33:07;;;;;;;3.50;1.10;;;;;;;5.99;69.22;152900.75;5089310;28;20448;-80
2022/02/19 02:35:43;;;;;;;5.03;0.87;;;;;;;5.97;67.44;152895.59;5093164;28;20447;-79
2022/02/19 02:38:22;;;;;;;5.50;1.43;;;;;;;5.94;69.09;152887.84;5092270;28;20456;-80
2022/02/19 02:40:58;;;;;;;3.07;1.13;;;;;;;5.94;68.42;152886.56;5106206;28;20439;-80
2022/02/19 02:43:34;;;;;;;4.00;1.03;;;;;;;5.86;68.31;152867.22;5089692;28;20746;-80
2022/02/19 02:46:10;;;;;;;2.20;1.50;;;;;;;5.86;68.83;152865.91;5086243;28;20453;-80
2022/02/19 02:48:46;;;;;;;2.40;0.90;;;;;;;5.87;67.11;152869.81;5105369;28;20915;-80
2022/02/19 02:51:23;;;;;;;5.23;1.20;;;;;;;5.80;67.23;152851.66;5089830;28;21019;-80
2022/02/19 02:54:02;;;;;;;5.00;1.37;;;;;;;5.73;69.12;152833.63;5091273;28;20439;-80
2022/02/19 02:56:40;;;;;;;2.10;1.30;;;;;;;5.72;65.85;152831.03;5089689;28;20452;-80
2022/02/19 02:59:16;;;;;;;4.67;1.13;;;;;;;5.75;69.61;152837.47;5086085;28;20833;-80
2022/02/19 03:01:52;;;;;;;3.53;1.23;;;;;;;5.66;64.66;152815.59;5092785;28;20881;-80
2022/02/19 03:04:28;;;;;;;2.60;0.90;;;;;;;5.70;65.19;152825.88;5090500;28;20463;-80
2022/02/19 03:07:04;;;;;;;3.10;1.03;;;;;;;5.69;65.57;152823.34;5092191;28;20479;-80
2022/02/19 03:09:41;;;;;;;2.90;1.10;;;;;;;5.63;67.15;152807.84;5104702;28;20444;-80
2022/02/19 03:12:17;;;;;;;3.03;0.97;;;;;;;5.66;68.41;152815.59;5086309;28;20453;-80
2022/02/19 03:14:53;;;;;;;6.80;1.73;;;;;;;5.66;70.78;152815.59;5104198;28;20441;-80
2022/02/19 03:17:29;;;;;;;5.37;1.20;;;;;;;5.61;70.31;152801.41;5088911;28;20448;-80
2022/02/19 03:20:06;;;;;;;2.00;1.03;;;;;;;5.59;67.86;152797.50;5104943;28;20452;-80
2022/02/19 03:22:44;;;;;;;1.77;1.13;;;;;;;5.61;65.91;152801.41;5085119;28;20468;-80
2022/02/19 03:25:22;;;;;;;2.27;1.20;;;;;;;5.56;68.23;152789.75;5089533;28;20460;-80
2022/02/19 03:28:00;;;;;;;5.83;1.57;;;;;;;5.53;67.49;152782.06;5089981;28;20449;-80
2022/02/19 03:30:40;;;;;;;1.87;1.20;;;;;;;5.58;66.87;152793.66;5091200;28;20428;-80
2022/02/19 03:33:31;;;;;;;3.27;0.93;;;;;;;5.50;67.32;152774.31;5088087;28;20441;-79
2022/02/19 03:36:07;;;;;;;4.30;1.37;;;;;;;5.55;64.94;152787.22;5090228;28;20443;-80
2022/02/19 03:38:43;;;;;;;2.30;1.27;;;;;;;5.58;67.61;152794.97;5092102;28;20534;-80
2022/02/19 03:41:28;;;;;;;3.80;0.93;;;;;;;5.55;67.23;152787.22;5089601;28;20540;-80
2022/02/19 03:44:07;;;;;;;4.13;1.03;;;;;;;5.52;66.42;152779.47;5088671;28;20468;-80
2022/02/19 03:46:48;;;;;;;2.50;1.27;;;;;;;5.54;65.45;152784.63;5088861;28;20855;-80
2022/02/19 03:49:49;;;;;;;2.00;1.40;;;;;;;5.54;66.72;152784.63;5090386;28;20530;-79
2022/02/19 03:52:25;;;;;;;4.10;1.30;;;;;;;5.56;68.99;152788.50;5089939;28;20794;-80
2022/02/19 03:55:01;;;;;;;4.77;1.30;;;;;;;5.47;66.25;152767.88;5083998;28;20454;-80
2022/02/19 03:57:38;;;;;;;3.17;1.10;;;;;;;5.42;69.47;152755.00;5091704;28;20451;-79
2022/02/19 04:00:14;;;;;;;5.90;3.03;;;;;;;5.40;68.85;152749.81;5098441;28;20838;-80
2022/02/19 04:02:53;;;;;;;2.70;1.23;;;;;;;5.37;69.43;152740.81;5099125;28;20845;-80
2022/02/19 04:05:33;;;;;;;4.63;1.50;;;;;;;5.34;66.35;152733.06;5090762;28;20501;-80
2022/02/19 04:08:09;;;;;;;6.97;1.43;;;;;;;5.26;72.27;152712.44;5086416;28;20452;-80
2022/02/19 04:10:47;;;;;;;4.50;1.27;;;;;;;5.22;66.89;152702.09;5082848;28;20853;-80
2022/02/19 04:13:24;;;;;;;3.50;1.37;;;;;;;5.22;66.00;152703.41;5083965;28;20470;-80
2022/02/19 04:16:20;;;;;;;4.57;1.10;;;;;;;5.24;66.19;152707.28;5104005;28;20436;-80
2022/02/19 04:18:59;;;;;;;3.10;1.00;;;;;;;5.20;67.17;152698.25;5092148;28;20527;-80
2022/02/19 04:21:35;;;;;;;2.70;0.97;;;;;;;5.17;65.25;152689.22;5088206;28;20451;-80
2022/02/19 04:24:13;;;;;;;2.40;1.07;;;;;;;5.18;66.05;152691.81;5090414;28;20816;-80
2022/02/19 04:26:51;;;;;;;3.03;0.90;;;;;;;5.14;63.37;152681.47;5088614;28;20452;-80
2022/02/19 04:29:29;;;;;;;3.40;0.93;;;;;;;5.04;67.45;152655.69;5089593;28;20449;-79
2022/02/19 04:32:09;;;;;;;3.03;1.00;;;;;;;5.01;67.86;152647.97;5104105;28;20457;-79
2022/02/19 04:34:51;;;;;;;1.47;1.07;;;;;;;4.97;66.60;152638.97;5096819;28;20846;-79
2022/02/19 04:37:27;;;;;;;2.70;0.80;;;;;;;5.02;64.29;152651.84;5086635;28;20455;-80
2022/02/19 04:40:07;;;;;;;3.07;1.20;;;;;;;4.97;67.23;152637.69;5082608;28;20452;-80
2022/02/19 04:42:46;;;;;;;2.93;1.40;;;;;;;4.87;66.33;152614.47;5089703;28;20537;-80
2022/02/19 04:45:29;;;;;;;4.30;1.50;;;;;;;4.87;65.59;152614.47;5089313;28;20483;-80
2022/02/19 04:50:52;;;;;;;2.87;1.10;;;;;;;4.78;65.79;152591.28;5030094;28;20458;-77
2022/02/19 04:53:28;;;;;;;5.10;1.40;;;;;;;4.74;67.86;152580.97;5007774;28;20451;-77
2022/02/19 04:56:05;;;;;;;3.10;1.00;;;;;;;4.78;65.72;152591.28;5030490;28;20450;-77
2022/02/19 04:58:41;;;;;;;2.30;1.27;;;;;;;4.78;66.40;152591.28;5015144;28;20732;-77
2022/02/19 05:01:18;;;;;;;2.70;0.77;;;;;;;4.70;65.16;152570.66;5044676;28;20952;-77
2022/02/19 05:04:10;;;;;;;2.40;0.90;;;;;;;4.70;68.25;152570.66;5027627;28;20506;-77
2022/02/19 05:07:05;;;;;;;2.90;1.50;;;;;;;4.67;64.88;152561.63;5030637;28;20542;-77
2022/02/19 05:09:41;;;;;;;3.30;1.60;;;;;;;4.68;64.98;152564.22;5034558;28;20482;-77
2022/02/19 05:12:20;;;;;;;3.93;1.57;;;;;;;4.66;67.65;152560.34;5017993;28;20809;-77
2022/02/19 05:14:56;;;;;;;4.23;1.40;;;;;;;4.59;65.93;152541.03;5039698;28;20452;-77
2022/02/19 05:17:49;;;;;;;1.60;1.10;;;;;;;4.57;65.32;152537.19;5034831;28;20457;-77
2022/02/19 05:20:25;;;;;;;3.23;0.80;;;;;;;4.58;67.50;152538.47;5016402;28;20446;-77
2022/02/19 05:23:00;;;;;;;4.77;1.30;;;;;;;4.55;66.78;152530.72;5035912;28;20456;-77
2022/02/19 05:25:40;;;;;;;3.43;1.20;;;;;;;4.54;65.44;152529.44;5029172;28;20479;-77
2022/02/19 05:28:18;;;;;;;5.80;1.40;;;;;;;4.54;68.18;152528.13;5031911;28;20736;-77
2022/02/19 05:30:54;;;;;;;4.10;1.83;;;;;;;4.45;69.15;152504.97;5034531;28;20807;-77
2022/02/19 05:33:50;;;;;;;3.07;1.13;;;;;;;4.51;65.66;152520.41;5036922;28;20458;-77
2022/02/19 05:36:25;;;;;;;6.30;1.40;;;;;;;4.49;68.30;152516.56;5034030;28;20537;-77
2022/02/19 05:39:02;;;;;;;2.57;1.10;;;;;;;4.48;65.68;152513.97;5018757;28;20528;-77
2022/02/19 05:41:42;;;;;;;2.70;1.17;;;;;;;4.45;68.28;152506.22;5032425;28;20454;-77
2022/02/19 05:44:22;;;;;;;2.30;0.97;;;;;;;4.46;68.50;152508.81;5017192;28;20474;-77
2022/02/19 05:47:00;;;;;;;3.13;0.93;;;;;;;4.41;67.53;152494.66;5017147;28;20443;-77
2022/02/19 05:49:38;;;;;;;1.80;0.80;;;;;;;4.32;69.33;152474.03;5017184;28;20807;-77
2022/02/19 05:52:20;;;;;;;2.50;0.93;;;;;;;4.31;67.58;152470.19;5017819;28;20443;-77
2022/02/19 05:55:09;;;;;;;3.17;1.07;;;;;;;4.30;71.15;152468.91;5014467;28;20443;-77
2022/02/19 05:57:47;;;;;;;5.23;1.80;;;;;;;4.33;70.37;152475.34;5018969;28;20454;-77
2022/02/19 06:00:24;;;;;;;2.77;1.17;;;;;;;4.30;71.25;152467.59;5016286;28;20463;-77
2022/02/19 06:03:00;;;;;;;5.27;1.20;;;;;;;4.27;67.63;152459.88;5018612;28;20455;-77
2022/02/19 06:05:37;;;;;;;3.27;1.50;;;;;;;4.29;66.86;152465.00;5034830;28;20524;-77
2022/02/19 06:08:13;;;;;;;6.40;1.27;;;;;;;4.27;68.29;152461.16;5010499;28;20483;-77
2022/02/19 06:10:49;;;;;;;4.93;1.57;;;;;;;4.25;69.26;152456.03;5032962;28;20925;-77
2022/02/19 06:13:27;;;;;;;3.00;0.90;;;;;;;4.22;67.47;152447.00;5033456;28;20478;-77
2022/02/19 06:16:04;;;;;;;4.00;1.13;;;;;;;4.22;65.76;152448.28;5016042;28;20451;-77
2022/02/19 06:18:48;;;;;;;5.40;1.47;;;;;;;4.21;71.28;152445.69;5032202;28;22430;-77
2022/02/19 06:21:25;;;;;;;2.60;0.90;;;;;;;4.11;71.67;152419.94;5016232;28;20447;-77
2022/02/19 06:24:01;;;;;;;4.47;1.20;;;;;;;4.09;70.03;152413.50;5033880;28;20457;-77
2022/02/19 06:26:40;;;;;;;6.40;1.63;;;;;;;4.10;72.50;152417.34;5015909;28;20937;-77
2022/02/19 06:29:28;;;;;;;3.23;0.93;;;;;;;4.02;67.79;152396.78;5030356;28;20444;-77
2022/02/19 06:32:11;;;;;;;3.63;1.13;;;;;;;3.98;69.89;152386.47;5046569;28;20451;-77
2022/02/19 06:34:51;;;;;;;2.83;0.90;;;;;;;4.01;70.79;152392.91;5032562;28;20435;-77
2022/02/19 06:37:40;;;;;;;2.50;1.10;;;;;;;4.00;70.34;152391.59;5046464;28;20537;-77
2022/02/19 06:40:18;;;;;;;4.53;1.40;;;;;;;4.00;69.96;152390.31;5033355;28;20435;-77
2022/02/19 06:42:54;;;;;;;3.23;1.17;;;;;;;4.00;68.31;152390.31;5034294;28;20919;-77
2022/02/19 06:45:32;;;;;;;7.23;1.00;;;;;;;4.03;71.62;152398.03;5015060;28;20472;-77
2022/02/19 06:48:08;;;;;;;1.67;1.07;;;;;;;3.99;74.17;152387.75;5013210;28;20523;-77
2022/02/19 06:50:45;;;;;;;2.20;1.07;;;;;;;4.05;69.29;152403.22;5012824;28;20435;-77
2022/02/19 06:53:22;;;;;;;1.40;0.80;;;;;;;4.01;69.49;152394.19;5014760;28;20932;-77
2022/02/19 06:55:57;;;;;;;3.60;1.00;;;;;;;4.12;69.35;152421.25;5027089;28;20451;-77
2022/02/19 06:58:33;;;;;;;4.40;1.27;;;;;;;4.14;72.42;152426.38;5014042;28;20454;-77
2022/02/19 07:01:10;;;;;;;4.23;1.20;;;;;;;4.15;69.50;152430.28;5031843;28;20458;-77
2022/02/19 07:03:47;;;;;;;18.30;1.23;;;;;;;4.12;70.13;152421.25;5047949;28;20808;-77
2022/02/19 07:06:42;;;;;;;5.80;1.17;;;;;;;4.18;69.04;152436.72;5032414;28;20957;-77
2022/02/19 07:09:20;;;;;;;2.40;0.80;;;;;;;4.34;71.27;152477.94;5045401;28;20446;-76
2022/02/19 07:11:56;;;;;;;7.67;1.30;;;;;;;4.51;70.11;152521.69;5047129;28;20901;-76
2022/02/19 07:14:34;;;;;;;5.37;0.90;;;;;;;4.68;67.10;152565.53;5013852;28;20458;-75
2022/02/19 07:17:14;;;;;;;4.50;1.50;;;;;;;4.86;67.98;152611.91;5029025;28;20475;-77
2022/02/19 07:19:50;;;;;;;1.80;1.10;;;;;;;5.08;66.68;152666.03;5015789;28;20443;-78
2022/02/19 07:22:26;;;;;;;2.90;1.00;;;;;;;4.98;67.30;152640.28;5013428;28;20452;-78
2022/02/19 07:25:03;;;;;;;2.00;1.20;;;;;;;5.10;66.54;152671.19;5018607;28;21009;-77
2022/02/19 07:27:39;;;;;;;5.90;1.73;;;;;;;5.22;65.37;152702.09;5030567;28;20478;-77
2022/02/19 07:30:17;;;;;;;4.13;1.60;;;;;;;5.34;68.06;152733.06;5029028;28;20443;-77
2022/02/19 07:32:53;;;;;;;4.30;1.50;;;;;;;5.57;65.15;152792.38;5024445;28;20570;-77
2022/02/19 07:35:55;;;;;;;2.80;0.97;;;;;;;5.72;63.31;152831.03;5046179;28;20929;-78
2022/02/19 07:38:34;;;;;;;4.67;1.70;;;;;;;5.89;65.24;152874.97;5029269;28;20454;-77
2022/02/19 07:41:11;;;;;;;2.83;0.83;;;;;;;5.97;64.80;152895.59;5029191;28;20527;-77
2022/02/19 07:44:13;;;;;;;3.33;0.87;;;;;;;5.97;64.52;152895.59;5046969;28;20486;-77
2022/02/19 07:47:22;;;;;;;2.50;1.00;;;;;;;6.14;65.60;152939.44;5047196;28;20932;-77
2022/02/19 07:59:34;;;;;;;2.20;0.77;;;;;;;7.08;60.72;153179.50;5007193;28;20521;-77
2022/02/19 08:02:12;;;;;;;2.63;0.97;;;;;;;7.21;61.02;153213.06;5013964;28;20442;-75
2022/02/19 08:04:49;;;;;;;3.00;1.30;;;;;;;7.07;60.87;153176.91;5046365;28;20455;-78
2022/02/19 08:07:24;;;;;;;3.17;1.23;;;;;;;7.26;60.04;153225.97;5024804;28;20432;-77
2022/02/19 08:10:01;;;;;;;2.40;0.77;;;;;;;7.43;60.92;153267.31;5011444;28;20458;-77
2022/02/19 08:12:38;;;;;;;5.00;1.30;;;;;;;7.53;57.94;153293.13;5028646;28;20438;-77
2022/02/19 08:15:14;;;;;;;4.07;1.30;;;;;;;7.58;60.11;153306.03;5046999;28;20442;-77
2022/02/19 08:17:49;;;;;;;1.90;1.10;;;;;;;7.40;60.14;153260.84;5028196;28;20446;-78
2022/02/19 08:20:25;;;;;;;3.10;1.23;;;;;;;7.25;58.73;153223.38;5029181;28;20455;-77
2022/02/19 08:23:01;;;;;;;8.07;1.50;;;;;;;7.26;60.01;153225.97;5048441;28;20449;-77
2022/02/19 08:25:38;;;;;;;4.60;1.07;;;;;;;7.16;60.29;153200.16;5013604;28;20455;-77
2022/02/19 08:28:15;;;;;;;4.80;1.57;;;;;;;7.06;62.34;153174.34;5028500;28;20454;-77
2022/02/19 08:30:51;;;;;;;3.93;1.37;;;;;;;7.07;60.97;153176.91;5029644;28;20474;-77
2022/02/19 08:33:26;;;;;;;6.97;1.43;;;;;;;7.05;61.96;153171.75;5044815;28;20454;-77
2022/02/19 08:36:02;;;;;;;3.20;1.03;;;;;;;7.08;58.51;153179.50;5018618;28;20934;-76
2022/02/19 08:38:37;;;;;;;2.70;1.10;;;;;;;6.97;61.63;153149.78;5040961;28;20539;-77
2022/02/19 08:41:13;;;;;;;6.83;1.77;;;;;;;7.00;60.91;153157.53;5030578;28;20443;-77
2022/02/19 08:43:50;;;;;;;3.37;1.13;;;;;;;6.81;60.60;153109.78;5032789;28;20900;-77
2022/02/19 08:46:26;;;;;;;5.60;1.70;;;;;;;6.78;62.84;153102.03;5018942;28;20469;-76
2022/02/19 08:49:01;;;;;;;1.97;0.87;;;;;;;6.84;63.75;153116.22;5024846;28;20482;-76
2022/02/19 08:51:37;;;;;;;3.20;0.90;;;;;;;6.94;59.72;153143.34;5012616;28;20455;-77
2022/02/19 08:54:12;;;;;;;6.47;1.30;;;;;;;6.98;60.45;153153.69;5026708;28;20541;-76
2022/02/19 08:56:50;;;;;;;4.30;1.40;;;;;;;7.01;57.62;153160.13;5029834;28;20840;-76
2022/02/19 08:59:27;;;;;;;4.97;1.90;;;;;;;6.99;59.48;153155.00;5047277;28;20455;-76
2022/02/19 09:02:02;;;;;;;3.53;1.20;;;;;;;6.81;62.31;153109.78;5045559;28;20941;-77
2022/02/19 09:04:38;;;;;;;2.47;1.10;;;;;;;6.88;58.67;153126.59;5015800;28;20456;-77
2022/02/19 09:07:16;;;;;;;2.30;0.90;;;;;;;6.97;57.26;153149.78;5030012;28;21017;-76
2022/02/19 09:09:51;;;;;;;4.17;1.13;;;;;;;6.98;58.00;153153.69;5027565;28;20950;-76
2022/02/19 09:12:28;;;;;;;2.70;1.10;;;;;;;7.07;62.20;153176.91;5028361;28;20447;-76
2022/02/19 09:15:06;;;;;;;3.00;1.30;;;;;;;7.07;59.91;153176.91;5049950;28;20842;-76
2022/02/19 09:17:41;;;;;;;2.70;1.37;;;;;;;7.07;57.72;153176.91;5047693;28;20486;-76
2022/02/19 09:20:19;;;;;;;1.60;0.90;;;;;;;7.10;63.59;153184.66;5044833;28;20439;-76
2022/02/19 09:22:54;;;;;;;2.97;1.30;;;;;;;7.06;58.25;153174.34;5045861;28;21028;-76
2022/02/19 09:25:30;;;;;;;4.90;1.23;;;;;;;7.07;60.90;153175.66;5014207;28;20957;-76
2022/02/19 09:28:06;;;;;;;5.60;1.70;;;;;;;7.09;56.80;153182.09;5030190;28;20455;-77
2022/02/19 09:30:43;;;;;;;1.60;1.17;;;;;;;7.12;57.50;153189.81;5030591;28;20447;-76
2022/02/19 09:33:19;;;;;;;3.90;1.27;;;;;;;7.12;57.72;153189.81;5028080;28;20539;-76
2022/02/19 09:35:54;;;;;;;2.40;0.93;;;;;;;7.02;61.86;153162.69;5032520;28;20542;-76
2022/02/19 09:38:30;;;;;;;3.43;1.10;;;;;;;7.14;58.88;153193.72;5027866;28;20451;-76
2022/02/19 09:41:07;;;;;;;2.87;0.93;;;;;;;7.11;56.54;153185.94;5042843;28;20446;-77
2022/02/19 09:43:43;;;;;;;4.80;1.30;;;;;;;7.07;62.80;153175.66;5023550;28;20451;-77
2022/02/19 09:46:21;;;;;;;3.37;1.03;;;;;;;6.83;59.22;153113.69;5039805;28;20471;-76
2022/02/19 09:48:57;;;;;;;3.07;1.00;;;;;;;6.95;62.35;153145.94;5026945;28;20502;-77
2022/02/19 09:51:33;;;;;;;2.90;1.10;;;;;;;6.86;59.39;153121.44;5043618;28;20455;-76
2022/02/19 09:54:09;;;;;;;5.90;1.50;;;;;;;6.98;65.44;153153.69;5025977;28;20849;-76
2022/02/19 09:56:44;;;;;;;5.27;1.00;;;;;;;6.95;60.14;153144.63;5029453;28;20447;-76
2022/02/19 09:59:20;;;;;;;2.40;1.10;;;;;;;6.98;58.09;153153.69;5012698;28;20471;-76
2022/02/19 10:02:05;;;;;;;2.17;1.00;;;;;;;6.98;63.27;153153.69;5026626;28;20558;-76
2022/02/19 10:04:44;;;;;;;2.73;1.70;;;;;;;6.99;58.92;153156.25;5031062;28;20451;-76
2022/02/19 10:07:20;;;;;;;8.37;1.57;;;;;;;7.07;60.26;153176.91;5024164;28;20468;-77
2022/02/19 10:09:59;;;;;;;3.30;1.20;;;;;;;6.97;60.73;153149.78;5024756;28;20436;-76
2022/02/19 10:12:45;;;;;;;4.07;1.40;;;;;;;7.03;57.82;153166.59;5026219;28;20452;-77
2022/02/19 10:15:21;;;;;;;3.77;1.20;;;;;;;7.05;60.03;153171.75;5028254;28;20818;-76
2022/02/19 10:17:58;;;;;;;3.07;1.10;;;;;;;7.13;64.29;153192.41;5024767;28;20514;-77
2022/02/19 10:20:34;;;;;;;3.10;1.37;;;;;;;7.15;58.27;153196.25;5041348;28;20452;-77
2022/02/19 10:23:13;;;;;;;4.70;0.80;;;;;;;7.07;58.62;153175.66;5045890;28;20546;-76
2022/02/19 10:26:02;;;;;;;4.60;1.10;;;;;;;7.21;59.72;153211.78;5044231;28;20851;-76
2022/02/19 10:28:38;;;;;;;6.10;1.10;;;;;;;7.23;63.97;153216.91;5029005;28;20834;-76
2022/02/19 10:31:15;;;;;;;3.87;1.00;;;;;;;7.19;59.23;153206.63;5039814;28;20440;-77
2022/02/19 10:34:04;;;;;;;2.40;1.60;;;;;;;7.28;60.75;153229.88;5044374;28;20554;-77
2022/02/19 10:36:41;;;;;;;3.00;1.07;;;;;;;7.34;56.98;153246.63;5024051;28;20440;-77
2022/02/19 10:39:26;;;;;;;1.60;1.10;;;;;;;7.42;57.51;153264.69;5027811;28;20452;-76
2022/02/19 10:42:04;;;;;;;2.40;1.03;;;;;;;7.46;58.91;153275.06;5029283;28;20528;-77
2022/02/19 10:44:40;;;;;;;2.40;1.00;;;;;;;7.46;57.04;153276.34;5028461;28;20877;-77
2022/02/19 10:47:20;;;;;;;1.80;1.00;;;;;;;7.38;57.15;153255.69;5012050;28;20457;-76
2022/02/19 10:50:11;;;;;;;2.37;1.10;;;;;;;7.43;60.06;153267.31;5019298;28;20563;-76
2022/02/19 10:52:53;;;;;;;4.80;1.20;;;;;;;7.47;57.79;153277.63;4994647;28;20450;-77
2022/02/19 10:55:30;;;;;;;2.90;0.93;;;;;;;7.50;62.02;153286.66;5009915;28;20687;-77
2022/02/19 10:58:06;;;;;;;4.60;1.27;;;;;;;7.42;59.60;153264.69;5007033;28;20547;-76
2022/02/19 11:00:44;;;;;;;2.20;1.07;;;;;;;7.46;58.94;153275.06;5026155;28;20429;-77
2022/02/19 11:03:21;;;;;;;1.90;0.93;;;;;;;7.47;62.46;153277.63;5019503;28;20551;-77
2022/02/19 11:05:58;;;;;;;2.00;1.33;;;;;;;7.49;61.71;153282.81;5009190;28;20464;-77
2022/02/19 11:08:33;;;;;;;1.73;0.87;;;;;;;7.59;56.25;153308.63;5007070;28;20452;-77
2022/02/19 11:11:10;;;;;;;3.80;1.07;;;;;;;7.56;54.49;153300.88;5008910;28;20444;-77
2022/02/19 11:13:45;;;;;;;2.83;1.07;;;;;;;7.63;58.66;153318.94;5026936;28;20453;-78
2022/02/19 11:16:22;;;;;;;1.97;1.10;;;;;;;7.56;55.61;153302.19;4996487;28;20456;-78
2022/02/19 11:18:57;;;;;;;1.60;0.80;;;;;;;7.60;54.21;153312.50;5000215;28;20464;-76
2022/02/19 11:21:36;;;;;;;5.33;0.97;;;;;;;7.65;53.77;153324.16;5001552;28;20814;-76
2022/02/19 11:24:12;;;;;;;4.23;1.30;;;;;;;7.68;54.36;153333.16;5010358;28;20449;-76
2022/02/19 11:26:49;;;;;;;4.07;1.10;;;;;;;7.71;53.15;153339.63;5000475;28;20468;-76
2022/02/19 11:29:25;;;;;;;2.20;0.70;;;;;;;7.75;51.01;153349.97;5023650;28;20938;-76
2022/02/19 11:32:02;;;;;;;1.50;0.90;;;;;;;7.66;54.87;153326.72;5012419;28;20440;-76
2022/02/19 11:34:40;;;;;;;5.30;1.00;;;;;;;7.53;57.39;153293.13;4994448;28;20464;-76
2022/02/19 11:37:19;;;;;;;1.90;0.70;;;;;;;7.63;55.18;153318.94;5000680;28;20960;-76
2022/02/19 11:40:03;;;;;;;3.80;0.90;;;;;;;7.70;53.36;153337.06;4994303;28;20840;-76
2022/02/19 11:42:42;;;;;;;2.60;1.00;;;;;;;7.69;52.24;153334.47;5013821;28;20951;-76
2022/02/19 11:45:26;;;;;;;2.70;1.20;;;;;;;7.60;56.28;153312.50;5022385;28;20437;-76
2022/02/19 11:48:28;;;;;;;3.83;1.00;;;;;;;7.60;54.66;153311.25;5022631;28;20472;-76
2022/02/19 11:51:12;;;;;;;1.63;1.03;;;;;;;7.64;53.90;153321.56;5029332;28;20477;-76
2022/02/19 11:53:50;;;;;;;2.90;1.20;;;;;;;7.52;58.26;153290.56;5048572;28;20451;-76
2022/02/19 11:56:28;;;;;;;2.07;0.97;;;;;;;7.50;52.86;153285.38;5030075;28;20790;-76
2022/02/19 11:59:05;;;;;;;9.93;1.67;;;;;;;7.35;56.25;153247.94;5031589;28;20459;-76
2022/02/19 12:01:44;;;;;;;1.57;0.90;;;;;;;7.36;53.91;153251.78;5011692;28;20464;-76
2022/02/19 12:04:20;;;;;;;1.77;0.80;;;;;;;7.31;53.78;153238.88;5049615;28;20446;-76
2022/02/19 12:07:11;;;;;;;2.07;1.10;;;;;;;7.25;58.92;153222.13;5044148;28;20954;-76
2022/02/19 12:10:05;;;;;;;2.63;1.13;;;;;;;7.08;54.83;153179.50;5048955;28;20467;-76
2022/02/19 12:13:05;;;;;;;0.80;0.67;;;;;;;7.16;58.51;153200.16;5028445;28;20436;-76
2022/02/19 12:15:42;;;;;;;2.47;1.07;;;;;;;7.10;57.22;153184.66;5029739;28;20478;-76
2022/02/19 12:18:49;;;;;;;2.20;1.20;;;;;;;7.05;60.46;153171.75;5028403;28;20442;-76
2022/02/19 12:21:31;;;;;;;3.27;1.00;;;;;;;7.09;56.33;153180.81;5015694;28;20455;-76
2022/02/19 12:24:11;;;;;;;2.50;0.90;;;;;;;7.07;57.25;153176.91;5047960;28;20868;-76
2022/02/19 12:27:12;;;;;;;2.40;1.20;;;;;;;7.02;57.57;153164.00;5031914;28;20458;-76
2022/02/19 12:29:51;;;;;;;1.80;1.10;;;;;;;7.03;58.06;153166.59;5045222;28;20794;-76
2022/02/19 12:32:30;;;;;;;2.30;0.80;;;;;;;6.96;56.56;153148.53;5023936;28;20428;-76
2022/02/19 12:35:06;;;;;;;2.30;1.10;;;;;;;6.92;54.96;153136.88;5030682;28;20441;-77
2022/02/19 12:37:42;;;;;;;1.23;0.80;;;;;;;6.95;59.31;153145.94;5044706;28;20549;-77
2022/02/19 12:40:19;;;;;;;1.43;0.90;;;;;;;6.90;55.69;153131.72;5022631;28;20530;-76